MET'MAP v2.0
soon released !

Expected late october,
this new version will be
more efficient, smarter,
and hosted on a brand new
server x3 powerfull...
...and still free !


Not compatible ?
Try the mobile version !

LOG IN : | Subscribe | Disclaimer | Who is Orbifly ? |
ICAO code :

TAF - ETHL Laupheim AB - 27 Nov 2020 18:05 UTC
Data Sources :     NOAA   


- Airport Elevation : 1766 ft
- No reported NOTAMs.


ETHL - Laupheim AB

Latest METAR recorded : 2015/08/11 07:20 ETHL 110720Z VRB02KT 9999 FEW020 SCT300 22/17 Q1018 BLU+BLU+
TAF COR TAF ETHL
Valid from the 27 at 12:00 until the 27 at 21:00 UTC


271125Z 2712/2721 05003KT 0100 FZFG VV000
PROB30 2712/2714 15003KT 0800 FG VV002

Source NOAA


MET'MAP, your aeronautical weather chart ! - Copyright ORBIFLY December 2007

Programming & Development : Alexandra Zaïnal
Co-Developer : Marc-Olivier Méhu
Technical & hardware support : Manuel Goepfert
Concept & Financing : Baudouin d'Aumeries